Time;durP1;ratioP1;P1;durP2;ratioP2;P2;SDS_P1;SDS_P2;PMS_P1;PMS_P2;Temp;Humidity;BMP_temperature;BMP_pressure;BME280_temperature;BME280_humidity;BME280_pressure;Samples;Min_cycle;Max_cycle;Signal;HPM_P1;HPM_P2
2024/01/02 00:00:34;;;;;;;56.15;28.15;;;;;;;0.42;100.00;99728.63;4905533;29;20158;-74
2024/01/02 00:02:59;;;;;;;38.20;27.05;;;;;;;0.40;100.00;99744.31;4912565;29;20347;-74
2024/01/02 00:05:25;;;;;;;40.33;27.65;;;;;;;0.46;100.00;99744.91;4904853;29;20040;-75
2024/01/02 00:07:50;;;;;;;39.92;27.48;;;;;;;0.46;100.00;99740.56;4911328;29;20063;-75
2024/01/02 00:10:15;;;;;;;39.15;26.95;;;;;;;0.53;100.00;99746.31;4906595;29;20068;-75
2024/01/02 00:12:41;;;;;;;44.85;25.73;;;;;;;0.55;100.00;99739.25;4909949;29;20059;-75
2024/01/02 00:15:07;;;;;;;35.13;26.90;;;;;;;0.52;100.00;99745.47;4908510;29;20028;-74
2024/01/02 00:17:32;;;;;;;37.47;25.10;;;;;;;0.57;100.00;99742.63;4907895;29;20103;-74
2024/01/02 00:19:58;;;;;;;43.10;26.00;;;;;;;0.49;100.00;99744.75;4907602;29;20036;-72
2024/01/02 00:22:24;;;;;;;35.33;25.50;;;;;;;0.46;100.00;99747.50;4908189;29;20042;-74
2024/01/02 00:24:49;;;;;;;38.95;24.83;;;;;;;0.39;100.00;99745.22;4908209;29;20063;-74
2024/01/02 00:27:15;;;;;;;33.70;24.75;;;;;;;0.36;100.00;99750.53;4914732;29;20043;-74
2024/01/02 00:29:40;;;;;;;34.17;26.90;;;;;;;0.39;100.00;99760.78;4909472;29;20191;-74
2024/01/02 00:32:06;;;;;;;36.13;27.00;;;;;;;0.45;100.00;99761.41;4912244;29;20039;-74
2024/01/02 00:34:31;;;;;;;53.25;27.48;;;;;;;0.43;100.00;99755.44;4913048;29;20353;-73
2024/01/02 00:36:57;;;;;;;85.30;25.77;;;;;;;0.31;100.00;99752.50;4909445;29;20040;-75
2024/01/02 00:39:22;;;;;;;37.70;26.90;;;;;;;0.23;100.00;99752.06;4914628;29;20039;-75
2024/01/02 00:41:49;;;;;;;41.60;27.75;;;;;;;0.24;100.00;99745.94;4909102;29;20039;-73
2024/01/02 00:44:15;;;;;;;34.55;27.35;;;;;;;0.34;100.00;99754.13;4909350;29;20048;-74
2024/01/02 00:46:41;;;;;;;45.03;28.27;;;;;;;0.26;100.00;99748.47;4912826;29;20123;-75
2024/01/02 00:49:06;;;;;;;41.50;28.05;;;;;;;0.29;100.00;99743.97;4911799;29;20044;-75
2024/01/02 00:51:32;;;;;;;46.00;26.35;;;;;;;0.21;100.00;99740.91;4910865;29;20036;-74
2024/01/02 00:53:59;;;;;;;39.53;27.70;;;;;;;0.24;100.00;99726.91;4910765;29;20036;-75
2024/01/02 00:56:24;;;;;;;51.78;27.88;;;;;;;-0.06;100.00;99726.66;4912901;29;20040;-75
2024/01/02 00:58:50;;;;;;;41.10;26.83;;;;;;;0.12;100.00;99725.75;4914028;29;20374;-74
2024/01/02 01:01:19;;;;;;;44.33;28.02;;;;;;;0.18;100.00;99730.66;4912755;29;20075;-75
2024/01/02 01:03:44;;;;;;;43.53;26.92;;;;;;;0.24;100.00;99722.56;4908151;29;20060;-75
2024/01/02 01:06:10;;;;;;;35.28;26.02;;;;;;;0.30;100.00;99724.88;4911237;29;20086;-75
2024/01/02 01:08:35;;;;;;;40.25;27.30;;;;;;;0.37;100.00;99720.22;4911455;29;20032;-75
2024/01/02 01:11:01;;;;;;;38.83;27.33;;;;;;;0.40;100.00;99720.94;4910379;29;20027;-75
2024/01/02 01:13:26;;;;;;;62.88;27.45;;;;;;;0.06;100.00;99717.44;4910383;29;20083;-74
2024/01/02 01:15:52;;;;;;;52.22;26.33;;;;;;;0.03;100.00;99717.59;4911749;29;20032;-74
2024/01/02 01:18:17;;;;;;;37.40;28.60;;;;;;;-0.01;100.00;99714.31;4903093;29;20028;-74
2024/01/02 01:20:43;;;;;;;41.63;27.45;;;;;;;0.14;100.00;99718.75;4913946;29;20029;-74
2024/01/02 01:23:08;;;;;;;60.92;28.80;;;;;;;-0.13;100.00;99707.94;4907940;29;20071;-74
2024/01/02 01:25:34;;;;;;;50.78;28.80;;;;;;;-0.04;100.00;99704.91;4909209;29;20393;-74
2024/01/02 01:27:59;;;;;;;47.55;27.83;;;;;;;-0.04;100.00;99698.88;4911580;29;20040;-74
2024/01/02 01:30:25;;;;;;;39.78;27.77;;;;;;;0.08;100.00;99698.28;4911757;29;20370;-74
2024/01/02 01:32:50;;;;;;;37.80;27.40;;;;;;;0.05;100.00;99702.78;4909999;29;20494;-74
2024/01/02 01:35:15;;;;;;;61.40;28.20;;;;;;;0.14;100.00;99713.56;4910741;29;20441;-74
2024/01/02 01:37:41;;;;;;;51.65;27.85;;;;;;;0.10;100.00;99727.59;4907729;29;20055;-74
2024/01/02 01:40:08;;;;;;;38.92;28.27;;;;;;;0.13;100.00;99729.19;4912448;29;20043;-74
2024/01/02 01:42:33;;;;;;;37.63;27.83;;;;;;;0.04;100.00;99727.06;4909624;29;20116;-74
2024/01/02 01:44:59;;;;;;;75.28;28.73;;;;;;;-0.19;100.00;99726.38;4909604;29;20052;-74
2024/01/02 01:47:25;;;;;;;40.13;27.15;;;;;;;-0.10;100.00;99725.09;4912809;29;20054;-74
2024/01/02 01:49:50;;;;;;;39.28;26.30;;;;;;;-0.01;100.00;99735.06;4912219;29;20341;-74
2024/01/02 01:52:16;;;;;;;51.13;25.08;;;;;;;-0.01;100.00;99743.69;4906510;29;20039;-74
2024/01/02 01:54:41;;;;;;;34.15;25.48;;;;;;;-0.07;100.00;99750.91;4912512;29;20517;-73
2024/01/02 01:57:07;;;;;;;47.78;24.55;;;;;;;-0.15;100.00;99745.22;4911641;29;20361;-74
2024/01/02 01:59:33;;;;;;;35.75;24.63;;;;;;;-0.18;100.00;99737.59;4905391;29;20043;-74
2024/01/02 02:01:59;;;;;;;39.08;26.30;;;;;;;-0.18;100.00;99737.59;4908300;29;20044;-74
2024/01/02 02:04:27;;;;;;;34.22;26.85;;;;;;;-0.26;100.00;99744.88;4908904;29;20067;-74
2024/01/02 02:06:52;;;;;;;32.97;25.33;;;;;;;-0.29;100.00;99734.63;4908866;29;20430;-75
2024/01/02 02:09:18;;;;;;;50.97;24.23;;;;;;;-0.29;100.00;99724.25;4910556;29;20036;-74
2024/01/02 02:11:44;;;;;;;44.92;22.55;;;;;;;-0.41;100.00;99721.31;4907452;29;20024;-74
2024/01/02 02:14:10;;;;;;;44.42;22.98;;;;;;;-0.81;100.00;99716.25;4913079;29;20040;-74
2024/01/02 02:16:36;;;;;;;26.83;21.38;;;;;;;-0.54;100.00;99715.03;4909699;29;20044;-74
2024/01/02 02:19:01;;;;;;;27.13;23.35;;;;;;;-0.36;100.00;99712.50;4909104;29;20031;-75
2024/01/02 02:21:27;;;;;;;27.10;23.27;;;;;;;-0.25;100.00;99710.25;4910240;29;20052;-74
2024/01/02 02:23:52;;;;;;;28.83;23.13;;;;;;;-0.23;100.00;99713.59;4906084;29;20033;-74
2024/01/02 02:26:18;;;;;;;44.33;23.30;;;;;;;-0.19;100.00;99723.78;4908551;29;20637;-74
2024/01/02 02:28:43;;;;;;;27.65;23.33;;;;;;;-0.11;100.00;99718.22;4912605;29;20060;-74
2024/01/02 02:31:09;;;;;;;31.55;24.17;;;;;;;-0.06;100.00;99711.91;4909217;29;20132;-74
2024/01/02 02:33:34;;;;;;;28.55;24.05;;;;;;;-0.13;100.00;99709.69;4903163;29;20447;-74
2024/01/02 02:36:02;;;;;;;27.48;24.45;;;;;;;-0.18;100.00;99706.47;4903658;29;20462;-74
2024/01/02 02:38:27;;;;;;;38.78;25.58;;;;;;;-0.28;100.00;99710.38;4910123;29;20032;-74
2024/01/02 02:40:53;;;;;;;30.55;23.88;;;;;;;-0.43;100.00;99702.44;4909966;29;20099;-75
2024/01/02 02:43:18;;;;;;;26.52;23.65;;;;;;;-0.47;100.00;99706.03;4910784;29;20429;-73
2024/01/02 02:45:44;;;;;;;29.35;25.35;;;;;;;-0.43;100.00;99704.19;4907446;29;20119;-73
2024/01/02 02:48:09;;;;;;;28.63;24.70;;;;;;;-0.46;100.00;99707.72;4909916;29;20043;-72
2024/01/02 02:50:34;;;;;;;26.92;23.95;;;;;;;-0.44;100.00;99718.88;4908368;29;20035;-73
2024/01/02 02:53:00;;;;;;;27.73;23.80;;;;;;;-0.51;100.00;99709.69;4909472;29;20036;-75
2024/01/02 02:55:25;;;;;;;27.92;24.13;;;;;;;-0.43;100.00;99717.97;4904588;29;20035;-76
2024/01/02 02:57:51;;;;;;;30.55;24.35;;;;;;;-0.36;100.00;99721.13;4910083;29;20090;-76
2024/01/02 03:00:16;;;;;;;28.65;24.27;;;;;;;-0.29;100.00;99724.25;4908354;29;20032;-78
2024/01/02 03:02:42;;;;;;;30.35;25.45;;;;;;;-0.25;100.00;99725.81;4911355;29;20036;-74
2024/01/02 03:05:08;;;;;;;27.08;23.98;;;;;;;-0.27;100.00;99728.47;4906435;29;20051;-74
2024/01/02 03:07:33;;;;;;;31.50;25.27;;;;;;;-0.34;100.00;99729.66;4911796;29;20043;-74
2024/01/02 03:09:59;;;;;;;33.47;25.58;;;;;;;-0.39;100.00;99738.56;4907407;29;20068;-75
2024/01/02 03:12:24;;;;;;;30.10;25.23;;;;;;;-0.38;100.00;99735.06;4909050;29;20035;-75
2024/01/02 03:14:50;;;;;;;30.13;25.50;;;;;;;-0.35;100.00;99735.75;4910518;29;20041;-75
2024/01/02 03:17:15;;;;;;;29.88;24.80;;;;;;;-0.24;100.00;99732.69;4910482;29;20036;-76
2024/01/02 03:19:41;;;;;;;29.13;23.77;;;;;;;-0.23;100.00;99739.53;4905518;29;20064;-76
2024/01/02 03:22:06;;;;;;;29.95;24.10;;;;;;;-0.19;100.00;99728.13;4911502;29;20055;-76
2024/01/02 03:24:32;;;;;;;35.90;24.67;;;;;;;-0.16;100.00;99734.00;4906289;29;20064;-76
2024/01/02 03:26:57;;;;;;;29.65;22.75;;;;;;;-0.14;100.00;99733.94;4912171;29;20489;-76
2024/01/02 03:29:26;;;;;;;25.40;22.42;;;;;;;-0.09;100.00;99731.97;4908820;29;20101;-76
2024/01/02 03:31:52;;;;;;;30.67;24.00;;;;;;;-0.11;100.00;99728.59;4909818;29;20040;-76
2024/01/02 03:34:17;;;;;;;29.77;23.83;;;;;;;-0.20;100.00;99719.50;4907749;29;20550;-76
2024/01/02 03:36:42;;;;;;;25.40;22.48;;;;;;;-0.23;100.00;99714.44;4910898;29;20043;-76
2024/01/02 03:39:08;;;;;;;27.98;23.20;;;;;;;-0.18;100.00;99711.66;4906325;29;20085;-75
2024/01/02 03:41:33;;;;;;;25.23;22.52;;;;;;;-0.17;100.00;99713.31;4911883;29;20060;-76
2024/01/02 03:43:59;;;;;;;29.23;24.27;;;;;;;-0.11;100.00;99710.44;4908593;29;20025;-77
2024/01/02 03:46:24;;;;;;;29.27;23.52;;;;;;;-0.05;100.00;99704.97;4909514;29;20064;-76
2024/01/02 03:48:49;;;;;;;31.27;24.77;;;;;;;-0.04;100.00;99704.06;4907610;29;20060;-76
2024/01/02 03:51:15;;;;;;;26.60;23.40;;;;;;;0.00;100.00;99705.59;4908602;29;20487;-76
2024/01/02 03:53:40;;;;;;;25.92;23.13;;;;;;;0.03;100.00;99700.25;4905971;29;20044;-77
2024/01/02 03:56:06;;;;;;;29.02;23.67;;;;;;;0.07;100.00;99701.78;4911260;29;20123;-76
2024/01/02 03:58:31;;;;;;;26.27;22.92;;;;;;;0.07;100.00;99696.59;4911529;29;20057;-75
2024/01/02 04:00:57;;;;;;;26.15;22.83;;;;;;;0.10;100.00;99701.66;4912624;29;20521;-76
2024/01/02 04:03:23;;;;;;;25.90;22.63;;;;;;;0.13;100.00;99691.13;4911062;29;20079;-76
2024/01/02 04:05:49;;;;;;;25.27;22.02;;;;;;;0.12;100.00;99688.63;4912102;29;20081;-77
2024/01/02 04:08:14;;;;;;;26.90;21.95;;;;;;;0.13;100.00;99680.72;4911571;29;20083;-76
2024/01/02 04:10:40;;;;;;;26.38;22.58;;;;;;;0.14;100.00;99682.41;4909853;29;20035;-77
2024/01/02 04:13:06;;;;;;;26.23;22.70;;;;;;;0.18;100.00;99668.38;4908413;29;20363;-74
2024/01/02 04:15:32;;;;;;;26.90;21.48;;;;;;;0.20;100.00;99671.75;4914394;29;20800;-75
2024/01/02 04:17:57;;;;;;;26.50;22.90;;;;;;;0.22;100.00;99664.72;4910079;29;20047;-76
2024/01/02 04:20:23;;;;;;;28.52;22.98;;;;;;;0.18;100.00;99658.00;4911932;29;20062;-75
2024/01/02 04:22:54;;;;;;;24.48;21.70;;;;;;;0.18;100.00;99647.59;4912184;29;20084;-75
2024/01/02 04:25:22;;;;;;;24.65;22.02;;;;;;;0.19;100.00;99648.44;4912348;29;20303;-75
2024/01/02 04:27:51;;;;;;;25.05;21.88;;;;;;;0.16;100.00;99644.28;4913536;29;20040;-75
2024/01/02 04:30:17;;;;;;;27.48;22.08;;;;;;;0.15;100.00;99642.59;4913166;29;20114;-76
2024/01/02 04:32:42;;;;;;;25.88;22.30;;;;;;;0.14;100.00;99633.13;4908566;29;20593;-76
2024/01/02 04:35:08;;;;;;;25.48;22.23;;;;;;;0.06;100.00;99627.47;4915155;29;20087;-75
2024/01/02 04:37:33;;;;;;;27.00;23.15;;;;;;;0.14;100.00;99629.69;4909609;29;20029;-75
2024/01/02 04:39:59;;;;;;;30.70;25.02;;;;;;;-0.01;100.00;99639.06;4911064;29;20426;-76
2024/01/02 04:42:25;;;;;;;29.73;24.75;;;;;;;0.00;100.00;99643.34;4912111;29;20482;-75
2024/01/02 04:44:50;;;;;;;29.65;24.63;;;;;;;0.06;100.00;99643.03;4912752;29;20050;-76
2024/01/02 04:47:16;;;;;;;34.63;25.80;;;;;;;-0.10;100.00;99662.84;4907540;29;20047;-75
2024/01/02 04:49:41;;;;;;;34.45;25.38;;;;;;;-0.17;100.00;99669.22;4913692;29;20029;-75
2024/01/02 04:52:06;;;;;;;33.35;25.85;;;;;;;-0.23;100.00;99672.13;4908763;29;20060;-75
2024/01/02 04:54:32;;;;;;;31.63;26.25;;;;;;;-0.33;100.00;99686.44;4910412;29;20111;-75
2024/01/02 04:56:58;;;;;;;30.73;25.33;;;;;;;-0.47;100.00;99680.13;4914059;29;20036;-75
2024/01/02 04:59:23;;;;;;;28.13;24.95;;;;;;;-0.37;100.00;99674.53;4911272;29;20076;-75
2024/01/02 05:01:49;;;;;;;32.92;26.38;;;;;;;-0.53;100.00;99664.03;4912226;29;20100;-74
2024/01/02 05:04:15;;;;;;;29.70;25.38;;;;;;;-0.61;100.00;99666.13;4911809;29;20091;-76
2024/01/02 05:06:41;;;;;;;29.17;25.42;;;;;;;-0.44;100.00;99659.25;4904556;29;20401;-75
2024/01/02 05:09:08;;;;;;;37.28;23.75;;;;;;;-0.88;100.00;99652.66;4912225;29;20028;-75
2024/01/02 05:11:37;;;;;;;26.58;23.40;;;;;;;-0.74;100.00;99649.47;4907770;29;20021;-76
2024/01/02 05:14:03;;;;;;;25.85;23.08;;;;;;;-0.57;100.00;99642.59;4915713;29;20129;-75
2024/01/02 05:16:28;;;;;;;26.48;23.17;;;;;;;-0.53;100.00;99644.13;4908495;29;20040;-76
2024/01/02 05:18:54;;;;;;;26.23;22.98;;;;;;;-0.55;100.00;99651.16;4911185;29;20028;-76
2024/01/02 05:21:19;;;;;;;25.75;23.00;;;;;;;-0.49;100.00;99650.88;4911560;29;20033;-75
2024/01/02 05:23:45;;;;;;;28.40;24.42;;;;;;;-0.43;100.00;99644.56;4912509;29;20036;-75
2024/01/02 05:26:10;;;;;;;26.20;22.92;;;;;;;-0.36;100.00;99658.06;4905112;29;20039;-75
2024/01/02 05:28:35;;;;;;;25.25;22.42;;;;;;;-0.26;100.00;99669.69;4913179;29;20139;-74
2024/01/02 05:31:01;;;;;;;25.92;22.75;;;;;;;-0.20;100.00;99682.34;4908795;29;20497;-75
2024/01/02 05:33:26;;;;;;;24.63;21.63;;;;;;;-0.19;100.00;99678.84;4911174;29;20025;-77
2024/01/02 05:35:52;;;;;;;23.30;20.90;;;;;;;-0.09;100.00;99686.13;4908274;29;20054;-76
2024/01/02 05:38:17;;;;;;;25.10;22.50;;;;;;;-0.05;100.00;99690.25;4911210;29;20032;-76
2024/01/02 05:40:42;;;;;;;23.55;21.05;;;;;;;-0.06;100.00;99700.72;4910811;29;20358;-76
2024/01/02 05:43:08;;;;;;;24.25;21.60;;;;;;;-0.01;100.00;99694.38;4912186;29;20043;-76
2024/01/02 05:45:36;;;;;;;26.15;22.00;;;;;;;-0.02;100.00;99695.31;4910412;29;20392;-74
2024/01/02 05:48:02;;;;;;;24.83;22.23;;;;;;;0.00;100.00;99690.03;4913298;29;20171;-75
2024/01/02 05:50:29;;;;;;;25.05;22.35;;;;;;;-0.19;100.00;99690.06;4908590;29;20033;-76
2024/01/02 05:52:54;;;;;;;26.38;23.02;;;;;;;-0.02;100.00;99691.88;4912741;29;20028;-76
2024/01/02 05:55:19;;;;;;;26.38;23.55;;;;;;;0.08;100.00;99687.91;4909324;29;20474;-77
2024/01/02 05:57:45;;;;;;;25.75;23.05;;;;;;;0.12;100.00;99681.66;4914569;29;20071;-76
2024/01/02 06:00:11;;;;;;;24.92;22.25;;;;;;;0.14;100.00;99682.41;4908827;29;20036;-76
2024/01/02 06:02:36;;;;;;;26.02;23.08;;;;;;;0.24;100.00;99678.44;4912111;29;20497;-76
2024/01/02 06:05:02;;;;;;;24.70;22.05;;;;;;;0.27;100.00;99678.31;4910701;29;20152;-75
2024/01/02 06:07:27;;;;;;;25.52;22.90;;;;;;;0.29;100.00;99676.50;4912962;29;20130;-76
2024/01/02 06:09:53;;;;;;;25.02;22.35;;;;;;;0.17;100.00;99686.63;4909418;29;20029;-75
2024/01/02 06:12:18;;;;;;;24.55;22.05;;;;;;;0.26;100.00;99691.38;4910468;29;20481;-75
2024/01/02 06:14:43;;;;;;;23.70;21.23;;;;;;;0.31;100.00;99695.41;4911027;29;20445;-76
2024/01/02 06:17:09;;;;;;;25.63;22.92;;;;;;;0.31;100.00;99679.84;4910666;29;20234;-75
2024/01/02 06:19:34;;;;;;;25.40;22.25;;;;;;;0.22;100.00;99664.72;4909391;29;20032;-76
2024/01/02 06:22:00;;;;;;;27.20;23.10;;;;;;;0.09;100.00;99666.25;4912075;29;20060;-75
2024/01/02 06:24:25;;;;;;;27.92;24.00;;;;;;;0.10;100.00;99672.28;4904229;29;20063;-75
2024/01/02 06:26:50;;;;;;;25.98;23.35;;;;;;;0.15;100.00;99671.13;4913251;29;20116;-76
2024/01/02 06:29:16;;;;;;;25.48;22.70;;;;;;;0.20;100.00;99669.16;4909387;29;20159;-76
2024/01/02 06:31:41;;;;;;;27.38;23.80;;;;;;;0.15;100.00;99673.72;4910518;29;20091;-76
2024/01/02 06:34:08;;;;;;;25.55;22.85;;;;;;;0.17;100.00;99671.91;4909446;29;20042;-78
2024/01/02 06:36:34;;;;;;;25.77;22.95;;;;;;;0.21;100.00;99676.03;4910696;29;20039;-75
2024/01/02 06:38:59;;;;;;;25.67;22.98;;;;;;;0.20;100.00;99676.94;4906755;29;20478;-76
2024/01/02 06:41:25;;;;;;;26.77;23.98;;;;;;;0.19;100.00;99679.59;4913336;29;20040;-75
2024/01/02 06:43:50;;;;;;;27.23;24.38;;;;;;;0.12;100.00;99681.66;4909921;29;20028;-75
2024/01/02 06:46:16;;;;;;;27.00;24.10;;;;;;;0.07;100.00;99685.38;4909490;29;20067;-76
2024/01/02 06:48:42;;;;;;;27.95;24.15;;;;;;;0.02;100.00;99698.56;4910761;29;20465;-76
2024/01/02 06:51:07;;;;;;;26.15;23.38;;;;;;;0.00;100.00;99697.84;4906814;29;20044;-77
2024/01/02 06:53:33;;;;;;;26.63;23.75;;;;;;;-0.03;100.00;99692.78;4909272;29;20473;-77
2024/01/02 06:55:58;;;;;;;25.95;23.15;;;;;;;-0.06;100.00;99690.34;4913758;29;20034;-77
2024/01/02 06:58:24;;;;;;;26.50;23.42;;;;;;;-0.06;100.00;99700.72;4911379;29;20032;-76
2024/01/02 07:00:49;;;;;;;26.85;24.05;;;;;;;-0.05;100.00;99707.56;4909942;29;20389;-75
2024/01/02 07:03:15;;;;;;;27.70;24.80;;;;;;;0.00;100.00;99710.81;4907463;29;20166;-74
2024/01/02 07:05:40;;;;;;;27.88;24.40;;;;;;;0.04;100.00;99711.47;4912191;29;20076;-73
2024/01/02 07:08:06;;;;;;;26.73;23.85;;;;;;;-0.11;100.00;99705.25;4910661;29;20066;-74
2024/01/02 07:10:31;;;;;;;29.08;24.90;;;;;;;0.06;100.00;99727.81;4907383;29;20390;-74
2024/01/02 07:12:57;;;;;;;28.48;25.40;;;;;;;0.19;100.00;99721.97;4906186;29;20124;-74
2024/01/02 07:15:22;;;;;;;28.42;25.02;;;;;;;0.27;100.00;99730.22;4908043;29;20127;-76
2024/01/02 07:17:48;;;;;;;30.30;26.40;;;;;;;0.37;100.00;99726.25;4905071;29;20088;-74
2024/01/02 07:20:14;;;;;;;28.08;24.13;;;;;;;0.32;100.00;99733.44;4904800;29;20382;-76
2024/01/02 07:22:39;;;;;;;28.98;24.80;;;;;;;0.41;100.00;99722.59;4904976;29;20032;-75
2024/01/02 07:25:05;;;;;;;27.70;24.50;;;;;;;0.37;100.00;99715.88;4908148;29;20055;-75
2024/01/02 07:27:30;;;;;;;26.27;23.45;;;;;;;0.49;100.00;99705.81;4902276;29;20047;-74
2024/01/02 07:29:56;;;;;;;26.30;23.50;;;;;;;0.55;100.00;99697.72;4909252;29;20366;-76
2024/01/02 07:32:21;;;;;;;27.98;24.92;;;;;;;0.62;100.00;99699.09;4904247;29;20437;-76
2024/01/02 07:34:46;;;;;;;26.63;23.58;;;;;;;0.70;100.00;99702.16;4909403;29;20045;-75
2024/01/02 07:37:12;;;;;;;28.40;22.88;;;;;;;0.57;100.00;99711.47;4909575;29;20404;-75
2024/01/02 07:39:38;;;;;;;26.05;22.92;;;;;;;0.65;100.00;99719.72;4915078;29;20036;-75
2024/01/02 07:42:08;;;;;;;26.92;23.48;;;;;;;0.62;100.00;99709.47;4911019;29;20067;-75
2024/01/02 07:44:34;;;;;;;;;;;;;;;0.32;100.00;99704.03;4908584;29;20397;-76
2024/01/02 07:47:00;;;;;;;26.88;23.42;;;;;;;0.30;100.00;99708.47;4912945;29;19918;-74
2024/01/02 07:49:26;;;;;;;29.05;25.00;;;;;;;0.37;100.00;99710.69;4909961;29;20034;-73
2024/01/02 07:51:51;;;;;;;26.33;22.98;;;;;;;0.48;100.00;99706.72;4911456;29;20036;-72
2024/01/02 07:54:16;;;;;;;27.42;24.40;;;;;;;0.48;100.00;99722.28;4911606;29;20497;-75
2024/01/02 07:56:42;;;;;;;27.23;24.27;;;;;;;0.35;100.00;99722.06;4915306;29;20144;-72
2024/01/02 07:59:07;;;;;;;26.73;23.88;;;;;;;0.50;100.00;99720.47;4917028;29;20032;-74
2024/01/02 08:01:33;;;;;;;28.50;23.50;;;;;;;0.56;100.00;99715.81;4916340;29;20057;-73
2024/01/02 08:03:58;;;;;;;28.73;23.40;;;;;;;0.50;100.00;99697.94;4913828;29;20444;-73
2024/01/02 08:06:23;;;;;;;30.02;25.20;;;;;;;0.43;100.00;99698.31;4917678;29;20051;-74
2024/01/02 08:08:49;;;;;;;31.73;24.02;;;;;;;0.45;100.00;99696.50;4915901;29;20036;-73
2024/01/02 08:11:14;;;;;;;31.13;24.98;;;;;;;0.52;100.00;99697.88;4913576;29;20156;-73
2024/01/02 08:13:40;;;;;;;27.50;24.58;;;;;;;0.60;100.00;99698.31;4916168;29;20032;-73
2024/01/02 08:16:05;;;;;;;28.55;24.10;;;;;;;0.65;100.00;99691.16;4916242;29;20040;-73
2024/01/02 08:18:33;;;;;;;29.73;24.85;;;;;;;0.70;100.00;99683.97;4908391;29;20160;-73
2024/01/02 08:20:59;;;;;;;31.42;25.10;;;;;;;0.72;100.00;99679.53;4915768;29;20028;-74
2024/01/02 08:23:25;;;;;;;27.27;24.17;;;;;;;0.63;100.00;99690.38;4232209;29;10000818;-72
2024/01/02 08:25:50;;;;;;;31.35;25.90;;;;;;;0.60;100.00;99682.72;4908852;29;20172;-74
2024/01/02 08:28:16;;;;;;;36.47;28.10;;;;;;;0.34;100.00;99674.50;4913218;29;20073;-73
2024/01/02 08:30:41;;;;;;;32.55;25.65;;;;;;;0.19;100.00;99667.47;4910671;29;20393;-73
2024/01/02 08:33:07;;;;;;;28.02;24.48;;;;;;;0.26;100.00;99671.44;4914599;29;20115;-74
2024/01/02 08:35:33;;;;;;;32.15;25.08;;;;;;;0.48;100.00;99685.94;4914201;29;20183;-74
2024/01/02 08:37:59;;;;;;;31.40;26.00;;;;;;;0.43;100.00;99693.13;4910637;29;20036;-73
2024/01/02 08:40:25;;;;;;;33.55;27.05;;;;;;;0.43;100.00;99703.50;4905487;29;20482;-73
2024/01/02 08:42:51;;;;;;;32.05;25.65;;;;;;;0.49;100.00;99717.03;4911523;29;20040;-74
2024/01/02 08:45:16;;;;;;;31.25;26.67;;;;;;;0.61;100.00;99718.19;4909445;29;20089;-73
2024/01/02 08:47:41;;;;;;;35.15;27.55;;;;;;;0.58;100.00;99729.56;4906298;29;20087;-73
2024/01/02 08:50:08;;;;;;;37.13;27.80;;;;;;;0.60;100.00;99722.53;4909095;29;20143;-74
2024/01/02 08:52:35;;;;;;;31.00;26.42;;;;;;;0.46;100.00;99713.75;4909022;29;20143;-74
2024/01/02 08:55:03;;;;;;;33.80;27.42;;;;;;;0.43;100.00;99719.09;4909561;29;20114;-73
2024/01/02 08:57:31;;;;;;;33.08;27.60;;;;;;;0.55;100.00;99713.28;4904855;29;20172;-74
2024/01/02 08:59:57;;;;;;;34.20;28.08;;;;;;;0.74;100.00;99703.66;4230459;29;10000860;-74
2024/01/02 09:02:22;;;;;;;37.97;29.20;;;;;;;0.88;100.00;99701.22;4909121;29;20036;-75
2024/01/02 09:04:48;;;;;;;35.40;28.15;;;;;;;0.91;100.00;99714.03;4911301;29;20060;-73
2024/01/02 09:07:13;;;;;;;33.10;27.92;;;;;;;0.99;100.00;99724.03;4913315;29;20036;-73
2024/01/02 09:09:39;;;;;;;36.63;28.30;;;;;;;1.10;100.00;99737.31;4912019;29;20362;-73
2024/01/02 09:12:06;;;;;;;32.05;26.38;;;;;;;1.18;100.00;99729.94;4909731;29;20028;-74
2024/01/02 09:14:35;;;;;;;32.25;27.67;;;;;;;1.17;100.00;99730.91;4910106;29;20029;-73
2024/01/02 09:17:01;;;;;;;31.95;27.05;;;;;;;1.19;100.00;99722.09;4911366;29;20486;-72
2024/01/02 09:19:26;;;;;;;32.63;26.13;;;;;;;1.17;100.00;99718.75;4910308;29;20024;-74
2024/01/02 09:21:51;;;;;;;31.10;26.45;;;;;;;1.30;100.00;99713.72;4908887;29;20397;-73
2024/01/02 09:24:18;;;;;;;30.92;25.52;;;;;;;1.42;100.00;99718.28;4909183;29;20406;-71
2024/01/02 09:26:46;;;;;;;30.38;26.48;;;;;;;1.48;100.00;99719.72;4912514;29;20099;-73
2024/01/02 09:29:11;;;;;;;30.17;25.42;;;;;;;1.40;100.00;99714.09;4913971;29;20119;-73
2024/01/02 09:31:39;;;;;;;30.67;26.48;;;;;;;1.43;100.00;99725.16;4903759;29;20817;-75
2024/01/02 09:34:05;;;;;;;33.03;26.40;;;;;;;1.43;100.00;99719.13;4914372;29;20040;-73
2024/01/02 09:36:30;;;;;;;31.95;27.05;;;;;;;1.45;100.00;99720.72;4909108;29;20178;-73
2024/01/02 09:38:57;;;;;;;32.95;26.08;;;;;;;1.52;100.00;99731.66;4922386;29;20111;-71
2024/01/02 09:41:53;;;;;;;31.52;26.60;;;;;;;1.50;100.00;99726.50;4902395;29;20032;-72
2024/01/02 09:44:41;;;;;;;31.25;25.27;;;;;;;1.45;100.00;99732.88;4906169;29;20127;-76
2024/01/02 09:47:37;;;;;;;33.83;26.92;;;;;;;1.40;100.00;99724.50;4910541;29;20048;-75
2024/01/02 09:50:26;;;;;;;33.25;25.75;;;;;;;1.38;100.00;99716.75;4912383;29;20345;-75
2024/01/02 09:53:04;;;;;;;32.42;26.92;;;;;;;1.49;100.00;99713.59;4909311;29;20044;-75
2024/01/02 09:55:47;;;;;;;32.80;27.40;;;;;;;1.55;100.00;99695.06;4907750;29;20042;-75
2024/01/02 09:58:35;;;;;;;32.22;25.42;;;;;;;1.71;100.00;99692.47;4909344;29;20051;-74
2024/01/02 10:01:18;;;;;;;34.40;27.45;;;;;;;1.86;100.00;99682.06;4909219;29;20382;-73
2024/01/02 10:04:10;;;;;;;35.20;26.88;;;;;;;2.03;100.00;99684.56;4910963;29;20091;-73
2024/01/02 10:07:04;;;;;;;30.75;26.45;;;;;;;2.03;100.00;99673.31;4907618;29;20048;-72
2024/01/02 10:09:51;;;;;;;29.02;24.38;;;;;;;2.02;100.00;99672.47;4909985;29;20433;-73
2024/01/02 10:12:36;;;;;;;32.00;26.60;;;;;;;2.12;100.00;99661.56;4910471;29;20123;-73
2024/01/02 10:15:31;;;;;;;32.38;26.52;;;;;;;2.19;100.00;99655.03;4909409;29;20144;-72
2024/01/02 10:18:03;;;;;;;31.83;25.98;;;;;;;2.12;100.00;99656.34;4910323;29;20037;-73
2024/01/02 10:20:49;;;;;;;30.85;25.55;;;;;;;1.96;100.00;99652.00;4908622;29;20032;-72
2024/01/02 10:23:36;;;;;;;35.08;26.63;;;;;;;1.90;100.00;99657.53;4909703;29;20044;-73
2024/01/02 10:26:04;;;;;;;32.10;24.88;;;;;;;1.77;100.00;99651.34;4908921;29;20482;-74
2024/01/02 10:28:29;;;;;;;31.13;26.50;;;;;;;1.83;100.00;99665.75;4909998;29;20062;-73
2024/01/02 10:31:23;;;;;;;33.50;26.63;;;;;;;1.46;100.00;99646.16;4909930;29;20067;-74
2024/01/02 10:34:10;;;;;;;33.30;26.30;;;;;;;1.41;100.00;99637.78;4900252;29;20041;-72
2024/01/02 10:36:41;;;;;;;31.83;26.50;;;;;;;1.47;100.00;99624.44;4572054;29;10000062;-72
2024/01/02 10:39:19;;;;;;;31.63;26.70;;;;;;;1.49;100.00;99609.56;4564610;29;10000068;-73
2024/01/02 10:42:04;;;;;;;35.95;27.67;;;;;;;1.76;100.00;99623.66;4909743;29;20111;-74
2024/01/02 10:44:30;;;;;;;33.70;26.88;;;;;;;1.93;100.00;99636.56;4903195;29;20439;-74
2024/01/02 10:47:24;;;;;;;31.88;26.65;;;;;;;2.01;100.00;99628.28;4727142;28;10000956;-74
2024/01/02 10:49:59;;;;;;;33.57;26.83;;;;;;;2.06;100.00;99642.72;4902511;29;20267;-72
2024/01/02 10:52:48;;;;;;;31.92;25.80;;;;;;;2.20;100.00;99643.72;4904848;29;20035;-72
2024/01/02 10:55:29;;;;;;;34.72;26.35;;;;;;;2.22;100.00;99641.88;4904476;29;20158;-72
2024/01/02 10:58:13;;;;;;;;;;;;;;;2.16;100.00;99626.59;4904300;29;20044;-73
2024/01/02 11:00:54;;;;;;;33.40;28.23;;;;;;;2.20;100.00;99638.50;4905599;29;20440;-74
2024/01/02 11:03:25;;;;;;;33.40;27.92;;;;;;;2.25;100.00;99646.88;4908250;29;20048;-73
2024/01/02 11:06:17;;;;;;;35.85;28.10;;;;;;;2.35;100.00;99629.81;4907234;29;20055;-73
2024/01/02 11:09:03;;;;;;;35.03;27.38;;;;;;;2.30;100.00;99614.44;4907795;29;20056;-73
2024/01/02 11:11:32;;;;;;;34.95;27.35;;;;;;;2.10;100.00;99600.91;4903163;29;20032;-72
2024/01/02 11:13:58;;;;;;;34.88;28.08;;;;;;;2.30;100.00;99588.41;4901124;29;20101;-73
2024/01/02 11:16:25;;;;;;;35.10;27.75;;;;;;;2.51;100.00;99586.31;4908366;29;20445;-73